Sterling, Idaho
Current Conditions -  °F | °C
As of 10:53 AM on Tuesday 21 Oct 2014 (Local Time) from KPIH Reporting Station
Light Rain Light Rain  
Wind Chill: 39°   Ceiling: 6000
Heat Index: 45°   Visibility: 10mi
Dew Point: 38°   Wind: 14mph
Humidity: 76%   Direction: 200°SSW
Pressure: 30.04"   Gusts: NA
Location:  43.1849°N, 112.825°W
Report Text: KPIH 211653Z 20012KT 10SM -RA BKN060 07/03 A3004 RMK AO2 SLP147 P0000 T00720033
Loading
Personal Weather Stations






























Interactive Weather Map
Tropical Storm Tracking
New forecast layout! Learn more

10-Day Weather Forecast

Advertisements
Track Severe Weather on mobile